Time;durP1;ratioP1;P1;durP2;ratioP2;P2;SDS_P1;SDS_P2;PMS_P1;PMS_P2;Temp;Humidity;BMP_temperature;BMP_pressure;BME280_temperature;BME280_humidity;BME280_pressure;Samples;Min_cycle;Max_cycle;Signal;HPM_P1;HPM_P2
2022/01/24 00:02:26;;;;;;;8.55;7.63;;;3.00;99.90;;;;;;5062221;28;20201;-84
2022/01/24 00:04:54;;;;;;;8.30;7.45;;;3.00;99.90;;;;;;5072382;28;20315;-85
2022/01/24 00:07:23;;;;;;;12.05;8.75;;;2.90;99.90;;;;;;5065128;28;20206;-84
2022/01/24 00:09:52;;;;;;;12.63;8.88;;;2.90;99.90;;;;;;5048141;28;20260;-84
2022/01/24 00:12:26;;;;;;;9.90;8.45;;;2.80;99.90;;;;;;5065912;28;20242;-84
2022/01/24 00:15:05;;;;;;;10.50;7.88;;;2.80;99.90;;;;;;5061932;28;20233;-84
2022/01/24 00:17:36;;;;;;;11.13;7.80;;;2.60;99.90;;;;;;5052157;28;20286;-82
2022/01/24 00:28:19;;;;;;;9.13;7.53;;;2.50;99.90;;;;;;5050259;28;20230;-83
2022/01/24 00:30:46;;;;;;;13.35;8.45;;;2.50;99.90;;;;;;5068228;28;20216;-83
2022/01/24 00:33:13;;;;;;;9.90;8.65;;;2.50;99.90;;;;;;5045359;28;20199;-84
2022/01/24 00:35:42;;;;;;;10.25;7.82;;;2.50;99.90;;;;;;5052237;28;20210;-85
2022/01/24 00:38:08;;;;;;;10.63;8.45;;;2.50;99.90;;;;;;5065767;28;20208;-83
2022/01/24 00:40:38;;;;;;;11.32;9.50;;;2.50;99.90;;;;;;5051222;28;20306;-84
2022/01/24 00:43:16;;;;;;;9.95;7.95;;;2.50;99.90;;;;;;5073438;28;20206;-83
2022/01/24 00:45:54;;;;;;;11.90;8.85;;;2.50;99.90;;;;;;5057569;28;20199;-84
2022/01/24 00:48:34;;;;;;;8.57;7.68;;;2.40;99.90;;;;;;5060707;28;20196;-83
2022/01/24 00:54:03;;;;;;;10.00;9.10;;;2.40;99.90;;;;;;5064322;28;20203;-85
2022/01/24 00:56:30;;;;;;;9.25;8.25;;;2.30;99.90;;;;;;5059696;28;20203;-83
2022/01/24 00:58:56;;;;;;;14.32;9.88;;;2.30;99.90;;;;;;5058926;28;20686;-83
2022/01/24 01:01:23;;;;;;;11.27;9.65;;;2.30;99.90;;;;;;5061264;28;20219;-84
2022/01/24 01:03:50;;;;;;;12.90;8.30;;;2.30;99.90;;;;;;5064774;28;20794;-83
2022/01/24 01:06:18;;;;;;;9.95;7.22;;;2.30;99.90;;;;;;5065980;28;20207;-83
2022/01/24 01:19:43;;;;;;;9.85;8.00;;;2.10;99.90;;;;;;5067792;28;20189;-84
2022/01/24 01:22:12;;;;;;;11.57;7.93;;;2.10;99.90;;;;;;5068738;28;20222;-84
2022/01/24 01:24:44;;;;;;;9.98;7.30;;;2.10;99.90;;;;;;5067117;28;20199;-85
2022/01/24 01:27:15;;;;;;;12.60;9.52;;;2.00;99.90;;;;;;5071000;28;20201;-83
2022/01/24 01:29:55;;;;;;;12.75;8.07;;;1.80;99.90;;;;;;5049421;28;20595;-83
2022/01/24 01:32:38;;;;;;;13.80;9.30;;;1.70;99.90;;;;;;5069408;28;20251;-83
2022/01/24 01:35:21;;;;;;;10.90;8.40;;;1.70;99.90;;;;;;5050487;28;20787;-84
2022/01/24 01:56:40;;;;;;;9.95;8.32;;;1.70;99.90;;;;;;4985226;28;20210;-82
2022/01/24 01:59:07;;;;;;;11.30;8.15;;;1.70;99.90;;;;;;4979833;28;20204;-81
2022/01/24 02:01:34;;;;;;;10.55;7.72;;;1.70;99.90;;;;;;4980022;28;20599;-81
2022/01/24 02:04:03;;;;;;;10.45;7.35;;;1.70;99.90;;;;;;4994992;28;20227;-82
2022/01/24 02:06:30;;;;;;;11.57;8.65;;;1.70;99.90;;;;;;5002013;28;20208;-81
2022/01/24 02:09:00;;;;;;;11.32;9.00;;;1.70;99.90;;;;;;4999106;28;20205;-81
2022/01/24 02:11:27;;;;;;;11.70;9.30;;;1.70;99.90;;;;;;5003805;28;20213;-81
2022/01/24 02:13:59;;;;;;;9.10;7.07;;;1.70;99.90;;;;;;4986274;28;20227;-82
2022/01/24 02:16:34;;;;;;;9.30;8.30;;;1.70;99.90;;;;;;4992059;28;20207;-81
2022/01/24 02:19:17;;;;;;;10.52;7.57;;;1.60;99.90;;;;;;5004437;28;20231;-82
2022/01/24 02:21:48;;;;;;;9.00;7.93;;;1.60;99.90;;;;;;5002572;28;20612;-82
2022/01/24 02:24:17;;;;;;;10.50;7.60;;;1.60;99.90;;;;;;5000488;28;20224;-82
2022/01/24 02:26:48;;;;;;;12.40;8.45;;;1.60;99.90;;;;;;5001213;28;20211;-82
2022/01/24 02:29:24;;;;;;;9.18;8.27;;;1.60;99.90;;;;;;4999957;28;20231;-82
2022/01/24 02:31:52;;;;;;;9.27;7.43;;;1.60;99.90;;;;;;4998450;28;20296;-82
2022/01/24 02:34:23;;;;;;;9.18;7.93;;;1.60;99.90;;;;;;4998314;28;20275;-81
2022/01/24 02:36:52;;;;;;;12.45;9.05;;;1.60;99.90;;;;;;4998470;28;20254;-81
2022/01/24 02:39:44;;;;;;;11.02;8.52;;;1.50;99.90;;;;;;4980208;28;20208;-81
2022/01/24 02:50:41;;;;;;;14.93;9.50;;;1.60;99.90;;;;;;5000996;28;20211;-81
2022/01/24 02:53:10;;;;;;;10.73;7.90;;;1.50;99.90;;;;;;4998203;28;20234;-81
2022/01/24 02:55:38;;;;;;;11.10;8.05;;;1.50;99.90;;;;;;5001480;28;20215;-80
2022/01/24 02:58:05;;;;;;;12.77;8.52;;;1.50;99.90;;;;;;4998740;28;20205;-81
2022/01/24 03:00:32;;;;;;;13.00;9.93;;;1.50;99.90;;;;;;4997529;28;20212;-81
2022/01/24 03:02:59;;;;;;;9.13;8.30;;;1.50;99.90;;;;;;4997760;28;20230;-82
2022/01/24 03:05:26;;;;;;;9.82;7.07;;;1.50;99.90;;;;;;5002385;28;20217;-82
2022/01/24 03:07:53;;;;;;;10.30;7.80;;;1.50;99.90;;;;;;5005133;28;20205;-80
2022/01/24 03:10:27;;;;;;;9.05;7.20;;;1.50;99.90;;;;;;4998859;28;20213;-82
2022/01/24 03:13:09;;;;;;;13.27;9.48;;;1.50;99.90;;;;;;4998415;28;20196;-82
2022/01/24 03:15:37;;;;;;;9.15;7.90;;;1.50;99.90;;;;;;5000513;28;20208;-82
2022/01/24 03:18:04;;;;;;;10.63;8.48;;;1.50;99.90;;;;;;5003940;28;20209;-81
2022/01/24 03:20:31;;;;;;;11.93;8.98;;;1.50;99.90;;;;;;5004860;28;20207;-81
2022/01/24 03:22:57;;;;;;;12.05;8.18;;;1.40;99.90;;;;;;5002907;28;20205;-81
2022/01/24 03:25:26;;;;;;;10.85;8.20;;;1.40;99.90;;;;;;5000396;28;20212;-82
2022/01/24 03:27:52;;;;;;;10.80;8.40;;;1.40;99.90;;;;;;4998834;28;20201;-81
2022/01/24 03:30:19;;;;;;;9.65;8.23;;;1.30;99.90;;;;;;4999363;28;20234;-82
2022/01/24 03:32:46;;;;;;;9.95;9.00;;;1.30;99.90;;;;;;4999231;28;20203;-82
2022/01/24 03:35:13;;;;;;;12.15;9.15;;;1.20;99.90;;;;;;4999785;28;20212;-82
2022/01/24 03:37:40;;;;;;;11.63;8.77;;;1.20;99.90;;;;;;4998921;28;20554;-82
2022/01/24 03:40:08;;;;;;;9.10;8.20;;;1.20;99.90;;;;;;4997394;28;20204;-82
2022/01/24 03:42:38;;;;;;;13.65;9.98;;;1.20;99.90;;;;;;4997225;28;20231;-82
2022/01/24 03:45:07;;;;;;;14.40;9.43;;;1.20;99.90;;;;;;4997531;28;20227;-82
2022/01/24 03:47:45;;;;;;;14.73;8.75;;;1.10;99.90;;;;;;4999194;28;20204;-81
2022/01/24 03:50:16;;;;;;;16.00;9.93;;;1.10;99.90;;;;;;5011816;28;20231;-81
2022/01/24 03:52:43;;;;;;;14.50;8.60;;;1.10;99.90;;;;;;5008711;28;20202;-81
2022/01/24 03:55:11;;;;;;;14.20;9.15;;;1.00;99.90;;;;;;5006212;28;20711;-81
2022/01/24 03:57:39;;;;;;;11.57;9.77;;;1.00;99.90;;;;;;5006550;28;20212;-82
2022/01/24 04:00:09;;;;;;;12.85;8.55;;;0.90;99.90;;;;;;5001284;28;20204;-81
2022/01/24 04:02:36;;;;;;;9.25;8.00;;;0.70;99.90;;;;;;4996836;28;20231;-81
2022/01/24 04:05:03;;;;;;;10.52;7.68;;;0.80;99.90;;;;;;4997325;28;20240;-81
2022/01/24 04:07:31;;;;;;;10.65;9.50;;;0.90;99.90;;;;;;5001527;28;20203;-81
2022/01/24 04:10:03;;;;;;;11.55;9.07;;;1.00;99.90;;;;;;4998635;28;20621;-81
2022/01/24 04:12:30;;;;;;;13.73;9.63;;;1.00;99.90;;;;;;4998365;28;20196;-82
2022/01/24 04:15:09;;;;;;;10.43;7.75;;;1.10;99.90;;;;;;4999274;28;20228;-82
2022/01/24 04:17:41;;;;;;;12.02;9.27;;;1.10;99.90;;;;;;4982148;28;20203;-82
2022/01/24 04:22:55;;;;;;;11.75;10.63;;;1.10;99.90;;;;;;4997260;28;20218;-82
2022/01/24 04:25:24;;;;;;;12.02;8.85;;;1.10;99.90;;;;;;4996932;28;20658;-82
2022/01/24 04:27:52;;;;;;;10.57;9.52;;;1.00;99.90;;;;;;4996820;28;20200;-82
2022/01/24 04:30:21;;;;;;;14.48;9.30;;;1.00;99.90;;;;;;4996534;28;20218;-82
2022/01/24 04:32:48;;;;;;;12.88;8.48;;;1.00;99.90;;;;;;4997169;28;20682;-82
2022/01/24 04:35:15;;;;;;;14.70;9.60;;;1.00;99.90;;;;;;4997563;28;20216;-81
2022/01/24 04:37:42;;;;;;;10.38;9.00;;;0.90;99.90;;;;;;5000485;28;20208;-81
2022/01/24 04:40:10;;;;;;;14.00;8.50;;;0.90;99.90;;;;;;5014500;28;20220;-81
2022/01/24 04:42:46;;;;;;;10.65;8.85;;;0.90;99.90;;;;;;5015739;28;20207;-81
2022/01/24 04:45:33;;;;;;;14.43;10.50;;;0.90;99.90;;;;;;4999636;28;20200;-82
2022/01/24 04:51:01;;;;;;;11.18;9.05;;;0.90;99.90;;;;;;5015892;28;20214;-82
2022/01/24 04:53:48;;;;;;;13.93;10.70;;;0.90;99.90;;;;;;5023939;28;20227;-81
2022/01/24 04:56:14;;;;;;;8.43;7.50;;;0.70;99.90;;;;;;5010634;28;20211;-82
2022/01/24 04:58:41;;;;;;;10.32;8.93;;;0.70;99.90;;;;;;5008748;28;20211;-81
2022/01/24 05:01:08;;;;;;;11.77;10.70;;;0.70;99.90;;;;;;5011870;28;20212;-81
2022/01/24 05:03:36;;;;;;;15.73;9.20;;;0.70;99.90;;;;;;5020358;28;20250;-81
2022/01/24 05:06:03;;;;;;;11.18;8.63;;;0.50;99.90;;;;;;5021061;28;20212;-81
2022/01/24 05:08:29;;;;;;;13.55;9.07;;;0.60;99.90;;;;;;5008877;28;20215;-81
2022/01/24 05:11:03;;;;;;;13.88;9.45;;;0.60;99.90;;;;;;5005166;28;20214;-82
2022/01/24 05:24:28;;;;;;;12.35;9.88;;;0.50;99.90;;;;;;5011317;28;20248;-82
2022/01/24 05:26:54;;;;;;;11.10;9.90;;;0.50;99.90;;;;;;5008697;28;20199;-81
2022/01/24 05:29:22;;;;;;;11.18;9.85;;;0.50;99.90;;;;;;5008651;28;20238;-81
2022/01/24 05:31:49;;;;;;;15.65;12.43;;;0.60;99.90;;;;;;5001949;28;20200;-82
2022/01/24 05:34:17;;;;;;;12.65;10.52;;;0.50;99.90;;;;;;5002680;28;20219;-82
2022/01/24 05:36:44;;;;;;;14.80;10.48;;;0.40;99.90;;;;;;5002508;28;20212;-82
2022/01/24 05:39:11;;;;;;;15.55;12.15;;;0.50;99.90;;;;;;5004640;28;20204;-82
2022/01/24 05:41:38;;;;;;;16.20;12.07;;;0.50;99.90;;;;;;5005006;28;20269;-82
2022/01/24 05:44:06;;;;;;;18.38;11.77;;;0.50;99.90;;;;;;5006426;28;20230;-82
2022/01/24 05:46:32;;;;;;;13.23;11.23;;;0.50;99.90;;;;;;5007668;28;20203;-82
2022/01/24 05:49:00;;;;;;;15.77;12.23;;;0.50;99.90;;;;;;5009872;28;20204;-81
2022/01/24 05:51:28;;;;;;;16.95;12.05;;;0.50;99.90;;;;;;5004611;28;20200;-82
2022/01/24 05:53:55;;;;;;;19.17;13.60;;;0.30;99.90;;;;;;5002774;28;20714;-81
2022/01/24 05:56:22;;;;;;;18.65;12.43;;;0.30;99.90;;;;;;5005395;28;20208;-82
2022/01/24 05:58:49;;;;;;;18.15;13.10;;;0.30;99.90;;;;;;5010696;28;20231;-82
2022/01/24 06:01:16;;;;;;;22.05;13.85;;;0.40;99.90;;;;;;5007572;28;20211;-82
2022/01/24 06:03:43;;;;;;;18.50;13.88;;;0.40;99.90;;;;;;5000210;28;20219;-82
2022/01/24 06:06:10;;;;;;;16.45;12.82;;;0.40;99.90;;;;;;5003701;28;20215;-81
2022/01/24 06:08:38;;;;;;;15.45;11.70;;;0.30;99.90;;;;;;5007894;28;20219;-82
2022/01/24 06:11:05;;;;;;;16.38;13.10;;;0.20;99.90;;;;;;5008021;28;20204;-81
2022/01/24 06:13:31;;;;;;;17.30;13.20;;;0.30;99.90;;;;;;4999765;28;20221;-82
2022/01/24 06:15:58;;;;;;;20.02;12.75;;;0.40;99.90;;;;;;5001570;28;20208;-81
2022/01/24 06:18:25;;;;;;;16.67;11.48;;;0.40;99.90;;;;;;4999145;28;20213;-81
2022/01/24 06:20:53;;;;;;;13.38;11.02;;;0.40;99.90;;;;;;4998766;28;20201;-82
2022/01/24 06:23:20;;;;;;;13.52;12.07;;;0.40;99.90;;;;;;4998890;28;20270;-82
2022/01/24 06:25:49;;;;;;;17.23;10.50;;;0.40;99.90;;;;;;4999727;28;20210;-82
2022/01/24 06:28:16;;;;;;;16.00;11.75;;;0.40;99.90;;;;;;5004440;28;20269;-81
2022/01/24 06:30:44;;;;;;;15.07;11.02;;;0.50;99.90;;;;;;5005737;28;20205;-82
2022/01/24 06:33:11;;;;;;;13.52;12.13;;;0.50;99.90;;;;;;5002777;28;20602;-80
2022/01/24 06:35:38;;;;;;;15.05;11.73;;;0.50;99.90;;;;;;4999863;28;20692;-81
2022/01/24 06:38:04;;;;;;;14.50;12.00;;;0.50;99.90;;;;;;4998817;28;20209;-82
2022/01/24 06:40:32;;;;;;;11.60;10.20;;;0.50;99.90;;;;;;4999000;28;20219;-81
2022/01/24 06:43:00;;;;;;;15.70;12.88;;;0.60;99.90;;;;;;5004822;28;20283;-81
2022/01/24 06:45:27;;;;;;;17.35;12.57;;;0.50;99.90;;;;;;5006169;28;20217;-81
2022/01/24 06:47:54;;;;;;;13.15;10.05;;;0.50;99.90;;;;;;5006571;28;20685;-82
2022/01/24 06:50:20;;;;;;;13.80;12.15;;;0.50;99.90;;;;;;5005143;28;20215;-81
2022/01/24 06:52:49;;;;;;;14.35;12.45;;;0.50;99.90;;;;;;5005993;28;20204;-81
2022/01/24 06:55:16;;;;;;;15.40;12.45;;;0.50;99.90;;;;;;5000878;28;20219;-82
2022/01/24 06:57:44;;;;;;;11.73;8.95;;;0.60;99.90;;;;;;5003179;28;20284;-82
2022/01/24 07:00:13;;;;;;;18.65;9.65;;;0.60;99.90;;;;;;4999287;28;20209;-81
2022/01/24 07:02:40;;;;;;;14.52;11.10;;;0.60;99.90;;;;;;4997953;28;20223;-81
2022/01/24 07:05:07;;;;;;;16.00;11.07;;;0.60;99.90;;;;;;4998462;28;20216;-79
2022/01/24 07:07:34;;;;;;;15.73;11.85;;;0.60;99.90;;;;;;4999088;28;20204;-80
2022/01/24 07:10:01;;;;;;;15.82;12.25;;;0.70;99.90;;;;;;4998528;28;20217;-80
2022/01/24 07:12:28;;;;;;;20.50;15.02;;;0.70;99.90;;;;;;4997869;28;20242;-80
2022/01/24 07:14:55;;;;;;;20.63;12.73;;;0.70;99.90;;;;;;4998413;28;20228;-80
2022/01/24 07:17:45;;;;;;;14.65;13.10;;;0.80;99.90;;;;;;4998820;28;20208;-80
2022/01/24 07:20:12;;;;;;;19.38;13.35;;;0.90;99.90;;;;;;4998308;28;20230;-79
2022/01/24 07:22:39;;;;;;;18.13;14.95;;;1.00;99.90;;;;;;4994283;28;20234;-79
2022/01/24 07:25:06;;;;;;;14.00;11.52;;;1.00;99.90;;;;;;4994003;28;20199;-79
2022/01/24 07:27:33;;;;;;;15.05;12.52;;;1.10;99.90;;;;;;4993699;28;20699;-79
2022/01/24 07:30:01;;;;;;;16.67;13.73;;;1.20;99.90;;;;;;4998110;28;20204;-79
2022/01/24 07:32:29;;;;;;;16.15;12.60;;;1.30;99.90;;;;;;4999160;28;20204;-80
2022/01/24 07:34:56;;;;;;;17.60;12.80;;;1.40;99.90;;;;;;4999976;28;20235;-79
2022/01/24 07:37:24;;;;;;;22.10;14.98;;;1.40;99.90;;;;;;5010393;28;20215;-80
2022/01/24 07:39:52;;;;;;;19.20;12.98;;;1.50;99.90;;;;;;5009190;28;20223;-81
2022/01/24 07:42:28;;;;;;;18.88;14.43;;;1.60;99.90;;;;;;5002390;28;20216;-80
2022/01/24 07:44:56;;;;;;;16.45;12.43;;;1.80;99.90;;;;;;5005328;28;20239;-81
2022/01/24 07:47:22;;;;;;;14.35;12.82;;;1.90;99.90;;;;;;5002170;28;20207;-80
2022/01/24 07:49:50;;;;;;;19.20;15.20;;;2.00;99.90;;;;;;5011412;28;20201;-79
2022/01/24 07:52:17;;;;;;;17.58;15.02;;;2.10;99.90;;;;;;5005584;28;20199;-81
2022/01/24 07:54:44;;;;;;;18.92;14.68;;;2.30;99.90;;;;;;5051277;23;20618;-80
2022/01/24 07:57:11;;;;;;;24.58;14.07;;;2.40;99.90;;;;;;5040193;28;20211;-81
2022/01/24 07:59:37;;;;;;;22.55;15.25;;;2.50;99.90;;;;;;5040539;28;20207;-81
2022/01/24 08:02:04;;;;;;;21.98;15.13;;;2.60;99.90;;;;;;5048536;28;20669;-80
2022/01/24 08:04:31;;;;;;;21.13;16.85;;;2.70;99.90;;;;;;5036646;28;20248;-80
2022/01/24 08:06:59;;;;;;;21.50;15.40;;;2.80;99.90;;;;;;5038067;28;20207;-80
2022/01/24 08:09:26;;;;;;;17.60;14.18;;;2.90;99.90;;;;;;5036837;28;20207;-80
2022/01/24 08:11:54;;;;;;;17.40;15.15;;;3.00;99.90;;;;;;5045237;28;20254;-81
2022/01/24 08:14:21;;;;;;;16.65;13.95;;;3.10;99.90;;;;;;5063175;28;20221;-81
2022/01/24 08:16:48;;;;;;;18.48;14.32;;;3.10;99.90;;;;;;5065447;28;20204;-80
2022/01/24 08:19:14;;;;;;;21.67;14.80;;;3.20;99.90;;;;;;5064086;28;20479;-81
2022/01/24 08:21:43;;;;;;;17.40;14.00;;;3.30;99.90;;;;;;5036392;28;20211;-82
2022/01/24 08:24:11;;;;;;;18.60;13.85;;;3.30;99.90;;;;;;5048472;28;20232;-81
2022/01/24 08:26:38;;;;;;;20.98;13.63;;;3.40;99.90;;;;;;5041914;28;20208;-80
2022/01/24 08:29:05;;;;;;;19.05;15.85;;;3.50;99.90;;;;;;5044384;28;20202;-79
2022/01/24 08:31:33;;;;;;;18.02;14.35;;;3.60;99.90;;;;;;5050850;28;20519;-80
2022/01/24 08:33:59;;;;;;;16.35;13.40;;;3.70;99.90;;;;;;5061913;28;20247;-80
2022/01/24 08:36:26;;;;;;;14.98;13.52;;;3.80;99.90;;;;;;5057386;28;20202;-79
2022/01/24 08:38:53;;;;;;;15.25;12.75;;;3.80;99.90;;;;;;5054702;28;20447;-82
2022/01/24 08:41:27;;;;;;;12.85;11.27;;;3.80;99.90;;;;;;5064698;28;20273;-83
2022/01/24 08:44:10;;;;;;;13.48;12.00;;;3.90;99.90;;;;;;5058521;28;20242;-83
2022/01/24 08:46:37;;;;;;;14.95;12.27;;;3.80;99.90;;;;;;5062457;28;20217;-83
2022/01/24 08:49:04;;;;;;;16.20;11.90;;;3.90;99.90;;;;;;5051238;28;20199;-83
2022/01/24 08:51:39;;;;;;;14.82;13.15;;;4.00;99.90;;;;;;5043775;28;20210;-85
2022/01/24 08:54:07;;;;;;;14.40;12.10;;;4.10;99.90;;;;;;5040299;28;20240;-80
2022/01/24 08:56:36;;;;;;;14.27;11.98;;;4.10;99.90;;;;;;5047532;28;20204;-82
2022/01/24 08:59:04;;;;;;;13.55;12.13;;;4.20;99.90;;;;;;5043218;28;20209;-82
2022/01/24 09:01:31;;;;;;;16.90;13.82;;;4.30;99.90;;;;;;5056496;28;20217;-80
2022/01/24 09:03:58;;;;;;;13.45;11.10;;;4.50;99.90;;;;;;5062396;28;20226;-78
2022/01/24 09:06:25;;;;;;;15.63;12.32;;;4.50;99.90;;;;;;5057821;28;20216;-79
2022/01/24 09:08:55;;;;;;;13.02;11.80;;;4.60;99.90;;;;;;5054876;28;20216;-80
2022/01/24 09:11:23;;;;;;;18.60;10.98;;;4.70;99.90;;;;;;5047358;28;20206;-80
2022/01/24 09:13:52;;;;;;;13.10;11.70;;;4.70;99.90;;;;;;5034598;28;20249;-80
2022/01/24 09:16:19;;;;;;;13.75;12.05;;;4.70;99.90;;;;;;5040610;28;20216;-80
2022/01/24 09:18:45;;;;;;;13.40;12.10;;;4.70;99.90;;;;;;5052942;28;20228;-81
2022/01/24 09:21:12;;;;;;;12.55;10.60;;;4.60;99.90;;;;;;5034083;28;20205;-79
2022/01/24 09:23:39;;;;;;;14.95;11.48;;;4.60;99.90;;;;;;5054481;28;20221;-80
2022/01/24 09:26:06;;;;;;;14.55;10.63;;;4.60;99.90;;;;;;5074760;28;20200;-79
2022/01/24 09:28:33;;;;;;;14.35;10.73;;;4.60;99.90;;;;;;5094404;28;20215;-79
2022/01/24 09:31:01;;;;;;;10.60;9.50;;;4.60;99.90;;;;;;5094671;28;20700;-79
2022/01/24 09:33:28;;;;;;;10.75;9.55;;;4.50;99.90;;;;;;5090615;28;20663;-79
2022/01/24 09:35:59;;;;;;;10.57;9.48;;;4.50;99.90;;;;;;5071420;28;20205;-79
2022/01/24 09:38:27;;;;;;;9.57;8.57;;;4.50;99.90;;;;;;5077053;28;20201;-79
2022/01/24 09:40:54;;;;;;;9.30;7.60;;;4.50;99.90;;;;;;5076188;28;20212;-79
2022/01/24 09:43:21;;;;;;;9.00;8.02;;;4.50;99.90;;;;;;5073880;28;20243;-80
2022/01/24 09:45:47;;;;;;;9.05;8.25;;;4.50;99.90;;;;;;5082113;28;20298;-80
2022/01/24 09:48:17;;;;;;;9.77;7.72;;;4.50;99.90;;;;;;5082574;28;20673;-80
2022/01/24 09:50:45;;;;;;;10.93;9.93;;;4.50;99.90;;;;;;5083614;28;20228;-80
2022/01/24 09:53:13;;;;;;;10.82;9.10;;;4.50;99.90;;;;;;5079281;28;20230;-80
2022/01/24 09:55:39;;;;;;;10.85;8.40;;;4.60;99.90;;;;;;5078239;28;20216;-81
2022/01/24 09:58:06;;;;;;;8.05;6.93;;;4.60;99.90;;;;;;5067093;28;20213;-80
2022/01/24 10:00:33;;;;;;;9.48;7.95;;;4.70;99.90;;;;;;5059721;28;20224;-80
2022/01/24 10:03:00;;;;;;;7.88;7.13;;;4.80;99.90;;;;;;5058979;28;20221;-79
2022/01/24 10:05:33;;;;;;;11.30;8.07;;;4.90;99.90;;;;;;5079038;28;20231;-80
2022/01/24 10:08:01;;;;;;;8.88;7.45;;;4.90;99.90;;;;;;5078975;28;20208;-80
2022/01/24 10:10:34;;;;;;;8.43;7.63;;;5.00;99.90;;;;;;5078534;28;20205;-80
2022/01/24 10:16:30;;;;;;;9.10;7.70;;;5.00;99.90;;;;;;5059043;28;20208;-82
2022/01/24 10:19:06;;;;;;;8.07;7.28;;;5.10;99.90;;;;;;5064656;28;20200;-80
2022/01/24 10:21:42;;;;;;;8.55;7.75;;;5.10;99.90;;;;;;5078378;28;20205;-80
2022/01/24 10:24:10;;;;;;;6.90;6.20;;;5.20;99.90;;;;;;5076160;28;20224;-80
2022/01/24 10:26:37;;;;;;;7.15;6.55;;;5.40;99.90;;;;;;5078312;28;20220;-79
2022/01/24 10:29:10;;;;;;;8.57;7.65;;;5.50;99.90;;;;;;5076335;28;20658;-79
2022/01/24 10:31:46;;;;;;;8.38;7.57;;;5.70;99.90;;;;;;5077747;28;20205;-79
2022/01/24 10:34:17;;;;;;;9.18;6.82;;;5.80;99.90;;;;;;5063656;28;20221;-80
2022/01/24 10:36:47;;;;;;;7.47;5.85;;;6.00;99.90;;;;;;5058331;28;20737;-79
2022/01/24 10:39:20;;;;;;;9.23;8.43;;;6.30;99.90;;;;;;5072925;28;20284;-79
2022/01/24 10:42:23;;;;;;;7.22;6.53;;;6.40;99.90;;;;;;5078164;28;20233;-79
2022/01/24 10:44:51;;;;;;;7.53;6.93;;;6.50;99.90;;;;;;5074319;28;20225;-78
2022/01/24 10:47:22;;;;;;;7.72;7.03;;;6.70;99.90;;;;;;5076784;28;20201;-80
2022/01/24 10:49:53;;;;;;;7.97;7.18;;;6.70;99.90;;;;;;5057123;28;20259;-79
2022/01/24 10:52:23;;;;;;;7.30;6.03;;;6.90;99.90;;;;;;5055996;28;20197;-80
2022/01/24 10:54:52;;;;;;;7.10;6.50;;;7.10;99.90;;;;;;5074912;28;20229;-78
2022/01/24 10:57:23;;;;;;;8.55;7.75;;;7.20;99.90;;;;;;5075952;28;20205;-79
2022/01/24 10:59:52;;;;;;;6.40;5.80;;;7.40;99.90;;;;;;5059623;28;20202;-79
2022/01/24 11:02:19;;;;;;;6.82;6.22;;;7.80;99.90;;;;;;5074661;28;20490;-80
2022/01/24 11:04:45;;;;;;;7.20;5.53;;;8.30;99.90;;;;;;5077951;28;20598;-80
2022/01/24 11:07:12;;;;;;;6.45;5.95;;;8.90;99.90;;;;;;5064257;28;20210;-80
2022/01/24 11:09:41;;;;;;;6.53;5.87;;;9.70;99.30;;;;;;5059587;28;20218;-80
2022/01/24 11:12:11;;;;;;;6.13;5.50;;;10.60;96.90;;;;;;5059413;28;20449;-80
2022/01/24 11:14:39;;;;;;;6.27;5.67;;;11.40;95.20;;;;;;5058584;28;20475;-80
2022/01/24 11:17:12;;;;;;;5.50;5.00;;;11.90;93.10;;;;;;5070631;28;20546;-83
2022/01/24 11:19:49;;;;;;;5.50;5.00;;;12.50;91.40;;;;;;5076285;28;20462;-84
2022/01/24 11:22:20;;;;;;;7.13;5.63;;;12.80;89.80;;;;;;5073178;28;20462;-80
2022/01/24 11:24:57;;;;;;;5.20;4.77;;;13.20;88.30;;;;;;5064836;28;21059;-84
2022/01/24 11:27:25;;;;;;;4.80;4.37;;;12.70;85.60;;;;;;5065454;28;20450;-80
2022/01/24 11:29:54;;;;;;;4.73;4.40;;;13.00;88.50;;;;;;5056597;28;20463;-80
2022/01/24 11:32:27;;;;;;;5.63;5.03;;;13.40;86.20;;;;;;5060190;28;20452;-81
2022/01/24 11:34:57;;;;;;;4.60;4.20;;;13.70;84.40;;;;;;5065711;28;20465;-79
2022/01/24 11:37:34;;;;;;;6.10;5.60;;;14.10;81.70;;;;;;5077802;28;20455;-79
2022/01/24 11:40:01;;;;;;;5.33;4.80;;;13.80;80.30;;;;;;5077702;28;20451;-80
2022/01/24 11:42:29;;;;;;;7.30;5.60;;;14.50;82.00;;;;;;5077956;28;20538;-80
2022/01/24 11:44:59;;;;;;;4.97;4.57;;;15.30;81.10;;;;;;5078737;28;20489;-81
2022/01/24 11:47:27;;;;;;;6.30;5.73;;;15.60;75.20;;;;;;5077708;28;20457;-82
2022/01/24 11:49:54;;;;;;;6.43;5.47;;;15.90;74.20;;;;;;5077875;28;20859;-82
2022/01/24 11:52:30;;;;;;;5.13;4.63;;;16.30;73.90;;;;;;5077290;28;20444;-83
2022/01/24 11:55:12;;;;;;;4.93;4.57;;;16.70;73.40;;;;;;5076991;28;20546;-82
2022/01/24 11:57:41;;;;;;;5.07;4.70;;;17.10;70.60;;;;;;5077689;28;20452;-82
2022/01/24 12:00:26;;;;;;;5.23;4.83;;;17.50;69.10;;;;;;5077005;28;20459;-81
2022/01/24 12:02:56;;;;;;;6.47;5.87;;;18.00;67.00;;;;;;5078204;28;20477;-81
2022/01/24 12:05:24;;;;;;;6.10;5.60;;;18.10;65.10;;;;;;5076716;28;21014;-81
2022/01/24 12:07:52;;;;;;;5.07;4.73;;;18.30;64.60;;;;;;5076764;28;20451;-81
2022/01/24 12:10:42;;;;;;;4.80;4.40;;;18.60;63.90;;;;;;5077701;28;20452;-82
2022/01/24 12:13:14;;;;;;;5.77;5.27;;;18.80;62.10;;;;;;5078623;28;20473;-81
2022/01/24 12:15:59;;;;;;;4.87;4.47;;;19.30;61.50;;;;;;5077736;28;20570;-81
2022/01/24 12:18:48;;;;;;;5.30;4.77;;;19.90;59.80;;;;;;5077616;28;20457;-82
2022/01/24 12:21:16;;;;;;;5.90;5.43;;;20.40;58.00;;;;;;5077790;28;20512;-81
2022/01/24 12:23:44;;;;;;;5.03;4.63;;;20.60;57.00;;;;;;5077521;28;20493;-82
2022/01/24 12:26:22;;;;;;;5.13;4.73;;;20.80;55.40;;;;;;5077233;28;20443;-82
2022/01/24 12:28:53;;;;;;;4.33;4.00;;;21.20;54.00;;;;;;5077448;28;20458;-82
2022/01/24 12:31:23;;;;;;;5.50;4.60;;;21.40;53.90;;;;;;5077236;28;20505;-82
2022/01/24 12:34:20;;;;;;;4.90;4.53;;;21.80;53.60;;;;;;5076330;28;21007;-81
2022/01/24 12:37:08;;;;;;;4.83;4.47;;;21.80;51.60;;;;;;5077049;28;20525;-81
2022/01/24 12:39:49;;;;;;;4.33;3.93;;;21.30;52.10;;;;;;5076634;28;20451;-81
2022/01/24 12:42:29;;;;;;;5.30;4.80;;;21.50;52.00;;;;;;5076797;28;20963;-82
2022/01/24 12:47:40;;;;;;;4.47;4.07;;;21.70;50.60;;;;;;5076704;28;20430;-82
2022/01/24 12:50:10;;;;;;;4.40;4.00;;;21.40;51.00;;;;;;5076581;28;20451;-82
2022/01/24 12:52:38;;;;;;;4.93;4.60;;;21.40;50.80;;;;;;5075938;28;21054;-81
2022/01/24 12:55:06;;;;;;;4.50;4.07;;;21.60;50.60;;;;;;5076252;28;20491;-82
2022/01/24 12:57:39;;;;;;;4.43;4.07;;;21.70;49.20;;;;;;5077335;28;20450;-82
2022/01/24 13:00:09;;;;;;;5.57;4.97;;;21.40;49.20;;;;;;5076417;28;20512;-82
2022/01/24 13:02:38;;;;;;;3.90;3.60;;;21.50;50.10;;;;;;5076889;28;20514;-82
2022/01/24 13:05:09;;;;;;;4.00;3.70;;;21.50;49.60;;;;;;5077181;28;20477;-82
2022/01/24 13:07:37;;;;;;;4.47;4.17;;;21.60;49.30;;;;;;5076877;28;20443;-82
2022/01/24 13:10:07;;;;;;;5.07;4.23;;;21.60;49.20;;;;;;5077297;28;20447;-82
2022/01/24 13:12:35;;;;;;;3.87;3.57;;;21.80;48.30;;;;;;5078614;28;20450;-82
2022/01/24 13:15:05;;;;;;;4.33;3.60;;;21.10;48.30;;;;;;5080778;28;20501;-83
2022/01/24 13:20:49;;;;;;;4.90;4.00;;;21.00;49.40;;;;;;5080728;28;20468;-82
2022/01/24 13:23:22;;;;;;;4.10;3.80;;;21.30;49.30;;;;;;5081249;28;20447;-82
2022/01/24 13:25:49;;;;;;;3.73;3.40;;;21.60;48.50;;;;;;5081531;28;20454;-81
2022/01/24 13:28:19;;;;;;;5.83;4.37;;;21.00;48.60;;;;;;5081352;28;20527;-82
2022/01/24 13:30:48;;;;;;;3.70;3.40;;;21.00;48.40;;;;;;5081259;28;20521;-82
2022/01/24 13:33:19;;;;;;;4.60;4.20;;;20.90;48.50;;;;;;5081071;28;20465;-82
2022/01/24 13:35:48;;;;;;;7.20;3.90;;;20.20;48.90;;;;;;5081065;28;20486;-83
2022/01/24 13:38:17;;;;;;;3.93;3.63;;;19.90;49.50;;;;;;5081206;28;20453;-83
2022/01/24 13:40:53;;;;;;;4.73;4.23;;;19.80;48.90;;;;;;5080877;28;20483;-83
2022/01/24 13:43:31;;;;;;;4.30;3.13;;;19.20;49.30;;;;;;5081588;28;20518;-83
2022/01/24 13:45:59;;;;;;;4.07;3.67;;;19.40;50.60;;;;;;5080035;28;20442;-82
2022/01/24 13:48:26;;;;;;;3.70;3.10;;;19.00;50.50;;;;;;5080297;28;20456;-83
2022/01/24 13:50:59;;;;;;;4.07;3.77;;;18.80;50.20;;;;;;5080854;28;20452;-81
2022/01/24 13:53:31;;;;;;;3.73;3.40;;;19.00;51.50;;;;;;5080298;28;20493;-82
2022/01/24 13:55:58;;;;;;;3.27;2.87;;;19.30;50.70;;;;;;5112289;23;20517;-82
2022/01/24 13:58:25;;;;;;;4.00;3.60;;;19.30;51.20;;;;;;5068002;28;20446;-82
2022/01/24 14:00:58;;;;;;;3.83;3.53;;;19.30;50.90;;;;;;5066768;28;20450;-82
2022/01/24 14:03:24;;;;;;;4.00;3.70;;;19.60;50.00;;;;;;5065683;28;20478;-82
2022/01/24 14:06:14;;;;;;;4.33;4.03;;;19.80;50.80;;;;;;5065927;28;20464;-83
2022/01/24 14:08:41;;;;;;;2.60;2.40;;;19.90;50.30;;;;;;5066687;28;20451;-83
2022/01/24 14:11:13;;;;;;;3.37;3.07;;;19.90;50.20;;;;;;5065781;28;20442;-83
2022/01/24 14:13:46;;;;;;;3.50;3.20;;;19.70;50.00;;;;;;5065694;28;20878;-83
2022/01/24 14:16:33;;;;;;;4.53;3.40;;;19.50;50.60;;;;;;5065638;28;20439;-83